x

Portland 12 Nm Southeast Of Portland,me (44007) Wave Buoy

11:50 - Fri 28th Jul 2017 All times are EDT. -4 hours from GMT.

  • Sig Wave height 2.0ft
  • Swell Direction
  • Peak Period 8s
  • Average Period 5s
  • Wind
    4mph, 4mph gusts
  • Sea Temp 63°f
  • Ar Temp 69°f
  • Sea Pressure 1009.6mb
  • Portland 12 Nm Southeast Of Portland,me
  • Portland 12 Nm Southeast Of Portland,me

More Historic Weather Station data

Upgrade to MSW Pro to gain access to the past 30 days of data for over 8000 Wavebouys and Weather Stations around the globe.

Join Pro

Comparision Forecast

View Surf forecast
   
Sex 07/28 11:50 2ft 8s 5s 4 4 mph 1009.6mb 63f 69f
10:50 2ft 8s 5s 2 4 mph 1009.8mb 61f 68f
9:50 2ft 8s 5s 2 2 mph 1009.9mb 60f 65f
8:50 2.5ft 8s 5s 2 4 mph 1010.1mb 60f 63f
7:50 2.5ft 5s 5s  -  2 mph 1009.8mb 59f 61f
6:50 2.5ft 5s 5s 4 4 mph 1009.2mb 59f 62f
5:50 2.5ft 7s 5s 4 4 mph 1008.9mb 59f 61f
4:50 2.5ft 7s 5s 4 7 mph 1008.5mb 59f 61f
3:50 3ft 7s 5s  -  2 mph 1008.1mb 59f 61f
2:50 3.5ft 8s 5s 7 7 mph 1008.1mb 59f 62f
1:50 3ft 5s 5s 9 9 mph 1008.4mb 59f 62f
12:50 3.5ft 8s 5s 9 11 mph 1008.8mb 59f 62f
Qui 07/27 11:50 3.5ft 5s 5s 11 11 mph 1008.9mb 59f 63f
10:50 3.5ft 6s 5s 11 13 mph 1009.5mb 59f 63f
9:50 3.5ft 5s 4s 13 16 mph 1009.5mb 59f 63f
8:50 3.5ft 5s 4s 13 16 mph 1009.6mb 59f 64f
7:50 3.5ft 5s 4s 16 18 mph 1009.4mb 60f 64f
6:50 3.5ft 5s 5s 16 18 mph 1009.2mb 60f 64f
5:50 3.5ft 5s 5s 18 20 mph 1009.4mb 60f 64f
4:50 4ft 5s 5s 16 18 mph 1009.7mb 60f 64f
3:50 3.5ft 5s 5s 18 22 mph 1010.1mb 60f 64f
2:50 4ft 5s 4s 18 20 mph 1010.7mb 60f 64f
1:50 3.5ft 5s 5s 18 20 mph 1011.4mb 60f 64f
12:50 3.5ft 5s 4s 18 20 mph 1012.1mb 60f 64f
11:50 3.5ft 5s 4s 18 20 mph 1012.8mb 60f 64f
10:50 3ft 5s 4s 18 20 mph 1013.6mb 60f 63f
9:50 3ft 5s 4s 16 20 mph 1014.1mb 60f 63f
8:50 2.5ft 5s 4s 13 16 mph 1014.8mb 60f 63f
7:50 2.5ft 5s 4s 11 13 mph 1015.2mb 60f 63f
6:50 3ft 5s 4s 13 16 mph 1015.5mb 60f 63f
5:50 3ft 8s 5s 13 16 mph 1015.6mb 61f 63f
4:50 3ft 7s 5s 11 13 mph 1015.6mb 61f 63f
3:50 2.5ft 7s 4s 11 11 mph 1015.7mb 61f 63f
2:50 3ft 7s 5s 11 13 mph 1016.2mb 61f 64f
1:50 2.5ft 8s 5s 11 11 mph 1016.9mb 62f 64f
12:50 2.5ft 8s 4s 11 13 mph 1017.2mb 62f 64f
Qua 07/26 11:50 2.5ft 7s 5s 11 13 mph 1018mb 62f 64f
10:50 2.5ft 7s 5s 13 13 mph 1018.7mb 62f 64f
9:50 2ft 8s 5s 9 9 mph 1019.5mb 62f 64f
8:50 2ft 8s 6s 9 9 mph 1019.5mb 62f 64f
7:50 2ft 8s 5s 9 9 mph 1019.7mb 63f 64f
6:50 2ft 9s 5s 9 9 mph 1019.7mb 63f 66f
5:50 2ft 8s 5s 11 11 mph 1020mb 64f 66f
4:50 2.5ft 7s 5s 11 11 mph 1020.5mb 65f 66f
3:50 2.5ft 8s 6s 11 13 mph 1020.9mb 65f 66f
2:50 2.5ft 8s 6s 11 13 mph 1021.2mb 67f 67f
1:50 3.5ft 7s 7s 9 11 mph 1021.5mb 67f 68f
12:50 3ft 7s 7s 4 4 mph 1022.3mb 66f 68f
11:50 3ft 7s 7s 2 2 mph 1022.5mb 64f 68f
10:50 2.5ft 7s 6s  -  0 mph 1023.2mb 62f 67f
9:50 2.5ft 8s 6s  -  2 mph 1023.3mb 61f 62f
8:50 2.5ft 8s 6s 2 4 mph 1023.4mb 60f 61f
7:50 2.5ft 8s 6s  -  0 mph 1023.2mb 60f 61f
6:50 2.5ft 8s 6s 2 2 mph 1023mb 60f 60f
5:50 2.5ft 8s 6s 4 4 mph 1022.6mb 60f 59f
4:50 2.5ft 8s 6s 7 7 mph 1022mb 60f 59f
3:50 3ft 7s 6s 7 9 mph 1021.7mb 60f 60f
2:50 3ft 8s 6s 4 7 mph 1021.5mb 61f 60f
1:50 3ft 7s 6s 7 9 mph 1021.7mb 63f 60f
12:50 3.5ft 8s 6s 11 11 mph 1021.7mb 63f 61f
Ter 07/25 11:50 3.5ft 8s 6s 13 16 mph 1021.8mb 64f 62f
10:50 3.5ft 8s 6s 13 16 mph 1021.7mb 64f 63f
9:50 3.5ft 7s 6s 13 16 mph 1021.6mb 64f 63f
8:50 3.5ft 8s 6s 13 16 mph 1021.6mb 64f 63f
7:50 3.5ft 8s 6s 11 13 mph 1021.3mb 65f 64f
6:50 3.5ft 7s 6s 11 13 mph 1021mb 65f 64f
5:50 3.5ft 7s 6s 11 11 mph 1020.7mb 65f 64f
4:50 4ft 7s 6s 9 11 mph 1020.6mb 65f 64f
3:50 4.5ft 7s 6s 7 7 mph 1020.1mb 65f 64f
2:50 4.5ft 8s 6s 4 7 mph 1019.8mb 65f 63f
1:50 4.5ft 8s 6s 2 4 mph 1019.8mb 64f 63f
12:50 4.5ft 8s 6s 4 7 mph 1019.7mb 64f 62f
11:50 4.5ft 7s 6s 11 13 mph 1019.4mb 63f 61f
10:50 4.5ft 7s 6s 11 13 mph 1019.1mb 63f 60f
9:50 4.5ft 8s 5s 13 16 mph 1018.8mb 62f 59f
8:50 4.5ft 7s 5s 18 20 mph 1018.6mb 62f 59f
7:50 4.5ft 8s 5s 16 18 mph 1018.2mb 62f 59f
6:50 5ft 7s 6s 18 20 mph 1017.5mb 62f 58f
5:50 5ft 7s 6s 18 20 mph 1016.8mb 62f 58f
4:50 5ft 7s 6s 16 18 mph 1016.1mb 62f 58f
3:50 5ft 7s 5s 16 18 mph 1015.5mb 62f 58f
2:50 5ft 7s 5s 16 18 mph 1015.3mb 62f 57f
1:50 6ft 7s 5s 18 25 mph 1015.2mb 62f 58f
12:50 6ft 7s 5s 20 25 mph 1015.1mb 62f 57f
Seg 07/24 11:50 5.5ft 6s 5s 22 27 mph 1014.6mb 62f 58f
10:50 6ft 6s 5s 22 27 mph 1014.8mb 63f 56f
9:50 5.5ft 6s 5s 25 29 mph 1014.7mb 63f 58f
8:50 5ft 5s 5s 25 29 mph 1014.4mb 63f 58f
7:50 5ft 5s 4s 25 31 mph 1014.2mb 62f 57f
6:50 4.5ft 6s 4s 25 29 mph 1014.3mb 62f 58f
5:50 4ft 5s 4s 18 22 mph 1014.6mb 62f 58f